Home PIREPS Pireps

Flight BEL709

  • Submitted By: Marc Toussaint
  • Departure Airport: Singapore Changi Airport (WSSS)
  • Arrival Airport: Hong Kong International Airport (VHHH)
  • Aircraft: A330-322 (OO-SFW)
  • Flight Time: 03.30
  • Date Submitted: 03/02/2018
  • Route: WSSS-VHHH
  • Status: Accepted
Flight Details
Gross Revenue:
(240 load / € 0.00 per unit
€ 0.00
Fuel Cost:
(39820 fuel used @ 0 / unit)
€ 0.00

Additional Log Information:

View Log

Aircraft Used in flight is Airbus A340-600 Etihad Airways - Grand Prix 2011
16:59 Brakes are On
17:05 Brakes are Released
17:07 Brakes are On
17:08 Brakes are Released
17:12 You Took off @ 191 Knots and Flaps at Position 2
Departure Weather
WSSS 031500Z 04008KT 010V070 9999 FEW018 BKN300 27/23 Q1013 NOSIGrn
17:12 Landing Gear Up @ 210 Knots and 80 Feet
20:00 Paused
20:00 Unpaused
20:01 Paused
22:34 Unpaused
22:48 Landing Gear Down @ 185 Knots and 3620 Feet
22:52 Below Fl100 you need to turn on the landing lights
22:52 Below FL100 you need to turn on the landing lights
22:56 You Landed @ 161 Knots and with -500 Vertical Speed
Arrival Weather
VHHH 032030Z 05015KT 9000 NSC 09/M02 Q1025 NOSIGrn
23:02 Brakes are On
23:03 Paused
23:03 Brussels Bel-Track1.0.1.2

Route Map

Corporate About Us Our Team Vacancies Information Fleet Route Network Rules and Regulations Operations Flight Schedules Event Center Tours Partners IVAO Vatsim Acars dev FSCB

fb Users Online No pilots online!
0 Pilot(s) and 108 Guest(s) Online
CMS by phpVMS - Design by Crazycreatives.com - Copyright © 2018 - Brussels Airlines Virtual